sensor_id;sensor_type;location;lat;lon;timestamp;pressure;altitude;pressure_sealevel;temperature;humidity
52975;BME280;38839;45.186;5.720;2023-05-12T00:01:22;98806.34;;;11.98;86.31
52975;BME280;38839;45.186;5.720;2023-05-12T00:03:47;98802.91;;;11.93;87.12
52975;BME280;38839;45.186;5.720;2023-05-12T00:06:13;98798.47;;;12.00;85.60
52975;BME280;38839;45.186;5.720;2023-05-12T00:08:38;98792.16;;;12.15;83.67
52975;BME280;38839;45.186;5.720;2023-05-12T00:11:03;98790.38;;;12.17;83.71
52975;BME280;38839;45.186;5.720;2023-05-12T00:13:29;98793.72;;;12.25;83.56
52975;BME280;38839;45.186;5.720;2023-05-12T00:15:54;98790.19;;;12.29;83.88
52975;BME280;38839;45.186;5.720;2023-05-12T00:18:22;98790.28;;;12.23;84.36
52975;BME280;38839;45.186;5.720;2023-05-12T00:20:48;98786.66;;;12.30;84.64
52975;BME280;38839;45.186;5.720;2023-05-12T00:23:13;98780.66;;;12.25;85.57
52975;BME280;38839;45.186;5.720;2023-05-12T00:25:39;98786.81;;;12.21;85.70
52975;BME280;38839;45.186;5.720;2023-05-12T00:28:04;98783.19;;;12.31;84.44
52975;BME280;38839;45.186;5.720;2023-05-12T00:30:30;98781.38;;;12.35;85.37
52975;BME280;38839;45.186;5.720;2023-05-12T00:32:55;98776.06;;;12.39;84.54
52975;BME280;38839;45.186;5.720;2023-05-12T00:35:20;98765.53;;;12.42;84.24
52975;BME280;38839;45.186;5.720;2023-05-12T00:37:46;98769.66;;;12.57;83.72
52975;BME280;38839;45.186;5.720;2023-05-12T00:40:11;98765.91;;;12.72;82.99
52975;BME280;38839;45.186;5.720;2023-05-12T00:42:37;98760.56;;;12.77;81.90
52975;BME280;38839;45.186;5.720;2023-05-12T00:45:02;98763.50;;;12.60;82.33
52975;BME280;38839;45.186;5.720;2023-05-12T00:47:29;98770.63;;;12.52;84.04
52975;BME280;38839;45.186;5.720;2023-05-12T00:49:54;98765.44;;;12.48;83.99
52975;BME280;38839;45.186;5.720;2023-05-12T00:52:20;98755.13;;;12.41;85.06
52975;BME280;38839;45.186;5.720;2023-05-12T00:54:46;98759.63;;;12.33;85.23
52975;BME280;38839;45.186;5.720;2023-05-12T00:57:12;98750.97;;;12.26;85.28
52975;BME280;38839;45.186;5.720;2023-05-12T00:59:38;98750.03;;;12.30;84.86
52975;BME280;38839;45.186;5.720;2023-05-12T01:02:03;98749.06;;;12.37;84.92
52975;BME280;38839;45.186;5.720;2023-05-12T01:04:29;98749.91;;;12.38;84.65
52975;BME280;38839;45.186;5.720;2023-05-12T01:07:02;98744.50;;;12.48;84.49
52975;BME280;38839;45.186;5.720;2023-05-12T01:09:29;98747.63;;;12.69;83.43
52975;BME280;38839;45.186;5.720;2023-05-12T01:11:55;98743.19;;;12.74;82.54
52975;BME280;38839;45.186;5.720;2023-05-12T01:14:20;98749.19;;;12.79;82.50
52975;BME280;38839;45.186;5.720;2023-05-12T01:16:50;98741.41;;;12.75;82.74
52975;BME280;38839;45.186;5.720;2023-05-12T01:19:33;98742.38;;;12.69;81.93
52975;BME280;38839;45.186;5.720;2023-05-12T01:22:02;98747.47;;;12.78;81.70
52975;BME280;38839;45.186;5.720;2023-05-12T01:24:29;98739.84;;;12.66;82.18
52975;BME280;38839;45.186;5.720;2023-05-12T01:26:57;98743.44;;;12.60;82.76
52975;BME280;38839;45.186;5.720;2023-05-12T01:29:23;98744.25;;;12.64;82.31
52975;BME280;38839;45.186;5.720;2023-05-12T01:31:49;98738.31;;;12.54;81.19
52975;BME280;38839;45.186;5.720;2023-05-12T01:34:15;98742.69;;;12.54;82.99
52975;BME280;38839;45.186;5.720;2023-05-12T01:36:43;98741.88;;;12.48;83.21
52975;BME280;38839;45.186;5.720;2023-05-12T01:39:08;98737.47;;;12.52;82.38
52975;BME280;38839;45.186;5.720;2023-05-12T01:41:34;98746.16;;;12.53;82.06
52975;BME280;38839;45.186;5.720;2023-05-12T01:44:00;98727.09;;;12.47;82.04
52975;BME280;38839;45.186;5.720;2023-05-12T01:46:25;98736.59;;;12.53;82.04
52975;BME280;38839;45.186;5.720;2023-05-12T01:48:50;98739.22;;;12.53;81.03
52975;BME280;38839;45.186;5.720;2023-05-12T01:51:16;98727.13;;;12.44;80.82
52975;BME280;38839;45.186;5.720;2023-05-12T01:53:41;98734.00;;;12.52;80.45
52975;BME280;38839;45.186;5.720;2023-05-12T01:56:07;98738.44;;;12.46;80.86
52975;BME280;38839;45.186;5.720;2023-05-12T01:58:32;98732.34;;;12.44;80.91
52975;BME280;38839;45.186;5.720;2023-05-12T02:00:57;98732.47;;;12.38;81.08
52975;BME280;38839;45.186;5.720;2023-05-12T02:03:23;98741.22;;;12.37;80.19
52975;BME280;38839;45.186;5.720;2023-05-12T02:05:48;98728.16;;;12.36;82.06
52975;BME280;38839;45.186;5.720;2023-05-12T02:08:13;98731.53;;;12.42;81.52
52975;BME280;38839;45.186;5.720;2023-05-12T02:10:39;98739.44;;;12.39;81.40
52975;BME280;38839;45.186;5.720;2023-05-12T02:13:04;98730.91;;;12.28;83.06
52975;BME280;38839;45.186;5.720;2023-05-12T02:15:29;98739.59;;;12.30;82.16
52975;BME280;38839;45.186;5.720;2023-05-12T02:17:55;98737.69;;;12.38;80.81
52975;BME280;38839;45.186;5.720;2023-05-12T02:20:22;98738.47;;;12.45;80.60
52975;BME280;38839;45.186;5.720;2023-05-12T02:22:47;98736.03;;;12.34;83.41
52975;BME280;38839;45.186;5.720;2023-05-12T02:25:13;98737.75;;;12.35;82.57
52975;BME280;38839;45.186;5.720;2023-05-12T02:27:38;98724.69;;;12.35;82.57
52975;BME280;38839;45.186;5.720;2023-05-12T02:30:04;98736.19;;;12.26;84.63
52975;BME280;38839;45.186;5.720;2023-05-12T02:32:30;98738.91;;;12.19;85.45
52975;BME280;38839;45.186;5.720;2023-05-12T02:34:56;98738.88;;;12.20;85.15
52975;BME280;38839;45.186;5.720;2023-05-12T02:37:22;98731.00;;;12.22;85.52
52975;BME280;38839;45.186;5.720;2023-05-12T02:39:47;98722.06;;;12.35;84.95
52975;BME280;38839;45.186;5.720;2023-05-12T02:42:12;98733.50;;;12.30;84.50
52975;BME280;38839;45.186;5.720;2023-05-12T02:44:38;98724.81;;;12.26;84.22
52975;BME280;38839;45.186;5.720;2023-05-12T02:47:03;98730.06;;;12.26;82.98
52975;BME280;38839;45.186;5.720;2023-05-12T02:49:29;98727.41;;;12.29;81.65
52975;BME280;38839;45.186;5.720;2023-05-12T02:51:55;98722.22;;;12.26;81.27
52975;BME280;38839;45.186;5.720;2023-05-12T02:54:20;98715.88;;;12.41;80.95
52975;BME280;38839;45.186;5.720;2023-05-12T02:56:45;98714.22;;;12.35;81.97
52975;BME280;38839;45.186;5.720;2023-05-12T02:59:11;98717.59;;;12.40;80.88
52975;BME280;38839;45.186;5.720;2023-05-12T03:01:36;98714.03;;;12.46;80.66
52975;BME280;38839;45.186;5.720;2023-05-12T03:04:02;98719.91;;;12.59;79.81
52975;BME280;38839;45.186;5.720;2023-05-12T03:06:28;98706.78;;;12.62;79.05
52975;BME280;38839;45.186;5.720;2023-05-12T03:08:54;98709.50;;;12.56;78.76
52975;BME280;38839;45.186;5.720;2023-05-12T03:11:20;98716.41;;;12.60;78.79
52975;BME280;38839;45.186;5.720;2023-05-12T03:13:46;98709.44;;;12.59;78.36
52975;BME280;38839;45.186;5.720;2023-05-12T03:16:12;98705.09;;;12.58;78.06
52975;BME280;38839;45.186;5.720;2023-05-12T03:18:40;98705.81;;;12.66;77.45
52975;BME280;38839;45.186;5.720;2023-05-12T03:21:06;98709.19;;;12.71;76.93
52975;BME280;38839;45.186;5.720;2023-05-12T03:23:31;98706.69;;;12.66;77.09
52975;BME280;38839;45.186;5.720;2023-05-12T03:25:57;98698.09;;;12.58;77.25
52975;BME280;38839;45.186;5.720;2023-05-12T03:28:22;98697.19;;;12.61;77.18
52975;BME280;38839;45.186;5.720;2023-05-12T03:30:48;98699.03;;;12.56;77.36
52975;BME280;38839;45.186;5.720;2023-05-12T03:33:14;98699.06;;;12.53;77.15
52975;BME280;38839;45.186;5.720;2023-05-12T03:35:40;98700.97;;;12.44;77.47
52975;BME280;38839;45.186;5.720;2023-05-12T03:38:06;98695.81;;;12.41;77.65
52975;BME280;38839;45.186;5.720;2023-05-12T03:40:32;98689.84;;;12.33;77.97
52975;BME280;38839;45.186;5.720;2023-05-12T03:42:57;98695.91;;;12.35;78.00
52975;BME280;38839;45.186;5.720;2023-05-12T03:45:23;98698.41;;;12.41;77.82
52975;BME280;38839;45.186;5.720;2023-05-12T03:47:48;98687.09;;;12.41;77.74
52975;BME280;38839;45.186;5.720;2023-05-12T03:50:14;98694.94;;;12.41;77.66
52975;BME280;38839;45.186;5.720;2023-05-12T03:52:39;98690.56;;;12.41;77.38
52975;BME280;38839;45.186;5.720;2023-05-12T03:55:05;98690.50;;;12.44;77.26
52975;BME280;38839;45.186;5.720;2023-05-12T03:57:31;98690.38;;;12.51;77.40
52975;BME280;38839;45.186;5.720;2023-05-12T03:59:56;98684.19;;;12.56;76.90
52975;BME280;38839;45.186;5.720;2023-05-12T04:02:22;98683.38;;;12.53;76.85
52975;BME280;38839;45.186;5.720;2023-05-12T04:04:47;98687.81;;;12.49;76.76
52975;BME280;38839;45.186;5.720;2023-05-12T04:07:13;98680.91;;;12.45;78.77
52975;BME280;38839;45.186;5.720;2023-05-12T04:09:38;98678.47;;;12.34;78.54
52975;BME280;38839;45.186;5.720;2023-05-12T04:12:04;98681.81;;;12.42;77.91
52975;BME280;38839;45.186;5.720;2023-05-12T04:14:29;98687.06;;;12.42;77.83
52975;BME280;38839;45.186;5.720;2023-05-12T04:16:55;98687.00;;;12.45;77.57
52975;BME280;38839;45.186;5.720;2023-05-12T04:19:22;98682.81;;;12.37;76.90
52975;BME280;38839;45.186;5.720;2023-05-12T04:21:48;98687.16;;;12.36;76.72
52975;BME280;38839;45.186;5.720;2023-05-12T04:24:13;98688.06;;;12.35;76.60
52975;BME280;38839;45.186;5.720;2023-05-12T04:26:38;98688.09;;;12.32;76.98
52975;BME280;38839;45.186;5.720;2023-05-12T04:29:04;98700.44;;;12.25;76.90
52975;BME280;38839;45.186;5.720;2023-05-12T04:31:29;98698.63;;;12.29;77.26
52975;BME280;38839;45.186;5.720;2023-05-12T04:33:54;98703.84;;;12.31;77.25
52975;BME280;38839;45.186;5.720;2023-05-12T04:36:20;98699.28;;;12.42;76.59
52975;BME280;38839;45.186;5.720;2023-05-12T04:38:45;98713.31;;;12.36;78.72
52975;BME280;38839;45.186;5.720;2023-05-12T04:41:11;98701.16;;;12.35;78.31
52975;BME280;38839;45.186;5.720;2023-05-12T04:43:36;98705.44;;;12.38;77.77
52975;BME280;38839;45.186;5.720;2023-05-12T04:46:04;98699.63;;;12.22;82.21
52975;BME280;38839;45.186;5.720;2023-05-12T04:48:29;98709.34;;;12.14;80.22
52975;BME280;38839;45.186;5.720;2023-05-12T04:50:57;98710.78;;;12.32;79.73
52975;BME280;38839;45.186;5.720;2023-05-12T04:53:22;98713.38;;;12.33;79.08
52975;BME280;38839;45.186;5.720;2023-05-12T04:55:48;98725.31;;;12.50;78.57
52975;BME280;38839;45.186;5.720;2023-05-12T04:58:14;98714.78;;;12.53;79.90
52975;BME280;38839;45.186;5.720;2023-05-12T05:00:39;98722.63;;;12.53;78.40
52975;BME280;38839;45.186;5.720;2023-05-12T05:03:05;98720.72;;;12.61;77.79
52975;BME280;38839;45.186;5.720;2023-05-12T05:05:30;98727.00;;;12.52;78.70
52975;BME280;38839;45.186;5.720;2023-05-12T05:07:56;98727.19;;;12.41;79.85
52975;BME280;38839;45.186;5.720;2023-05-12T05:10:22;98739.44;;;12.39;81.26
52975;BME280;38839;45.186;5.720;2023-05-12T05:12:47;98741.22;;;12.37;81.19
52975;BME280;38839;45.186;5.720;2023-05-12T05:15:13;98741.00;;;12.50;81.00
52975;BME280;38839;45.186;5.720;2023-05-12T05:17:38;98739.38;;;12.42;81.26
52975;BME280;38839;45.186;5.720;2023-05-12T05:20:04;98748.13;;;12.41;81.13
52975;BME280;38839;45.186;5.720;2023-05-12T05:22:31;98739.44;;;12.39;81.26
52975;BME280;38839;45.186;5.720;2023-05-12T05:24:56;98748.16;;;12.40;81.52
52975;BME280;38839;45.186;5.720;2023-05-12T05:27:22;98748.16;;;12.40;81.59
52975;BME280;38839;45.186;5.720;2023-05-12T05:29:47;98743.63;;;12.48;81.11
52975;BME280;38839;45.186;5.720;2023-05-12T05:32:13;98749.41;;;12.67;80.74
52975;BME280;38839;45.186;5.720;2023-05-12T05:34:39;98746.25;;;12.96;79.80
52975;BME280;38839;45.186;5.720;2023-05-12T05:37:04;98745.38;;;12.96;79.36
52975;BME280;38839;45.186;5.720;2023-05-12T05:39:30;98750.38;;;13.08;78.66
52975;BME280;38839;45.186;5.720;2023-05-12T05:41:56;98745.78;;;13.21;77.98
52975;BME280;38839;45.186;5.720;2023-05-12T05:44:22;98747.69;;;13.13;77.45
52975;BME280;38839;45.186;5.720;2023-05-12T05:46:49;98748.81;;;12.98;77.64
52975;BME280;38839;45.186;5.720;2023-05-12T05:49:15;98750.44;;;13.05;76.98
52975;BME280;38839;45.186;5.720;2023-05-12T05:51:40;98744.91;;;13.20;76.58
52975;BME280;38839;45.186;5.720;2023-05-12T05:54:06;98742.03;;;13.34;75.38
52975;BME280;38839;45.186;5.720;2023-05-12T05:56:31;98740.69;;;13.55;74.32
52975;BME280;38839;45.186;5.720;2023-05-12T05:58:57;98747.31;;;13.72;73.70
52975;BME280;38839;45.186;5.720;2023-05-12T06:01:27;98742.47;;;13.94;72.61
52975;BME280;38839;45.186;5.720;2023-05-12T06:03:52;98749.34;;;13.99;72.13
52975;BME280;38839;45.186;5.720;2023-05-12T06:06:17;98745.78;;;14.00;71.42
52975;BME280;38839;45.186;5.720;2023-05-12T06:08:43;98745.34;;;13.83;71.76
52975;BME280;38839;45.186;5.720;2023-05-12T06:11:08;98749.91;;;13.75;72.11
52975;BME280;38839;45.186;5.720;2023-05-12T06:13:34;98751.97;;;13.99;71.66
52975;BME280;38839;45.186;5.720;2023-05-12T06:16:00;98750.22;;;13.98;71.09
52975;BME280;38839;45.186;5.720;2023-05-12T06:18:25;98745.66;;;14.06;70.63
52975;BME280;38839;45.186;5.720;2023-05-12T06:20:51;98744.50;;;13.81;72.20
52975;BME280;38839;45.186;5.720;2023-05-12T06:23:16;98755.03;;;14.17;71.53
52975;BME280;38839;45.186;5.720;2023-05-12T06:25:41;98755.31;;;14.04;72.07
52975;BME280;38839;45.186;5.720;2023-05-12T06:28:07;98743.66;;;13.80;73.06
52975;BME280;38839;45.186;5.720;2023-05-12T06:30:35;98747.56;;;13.62;73.52
52975;BME280;38839;45.186;5.720;2023-05-12T06:33:00;98756.16;;;13.67;73.67
52975;BME280;38839;45.186;5.720;2023-05-12T06:35:26;98754.44;;;13.66;73.74
52975;BME280;38839;45.186;5.720;2023-05-12T06:37:51;98752.53;;;13.75;73.76
52975;BME280;38839;45.186;5.720;2023-05-12T06:40:17;98751.72;;;13.71;73.94
52975;BME280;38839;45.186;5.720;2023-05-12T06:42:43;98755.16;;;13.73;73.78
52975;BME280;38839;45.186;5.720;2023-05-12T06:45:09;98752.00;;;13.57;74.86
52975;BME280;38839;45.186;5.720;2023-05-12T06:47:36;98754.00;;;13.47;75.36
52975;BME280;38839;45.186;5.720;2023-05-12T06:50:02;98759.22;;;13.47;75.58
52975;BME280;38839;45.186;5.720;2023-05-12T06:52:27;98752.28;;;13.45;75.72
52975;BME280;38839;45.186;5.720;2023-05-12T06:55:10;98756.50;;;13.52;75.85
52975;BME280;38839;45.186;5.720;2023-05-12T06:57:36;98756.44;;;13.55;75.19
52975;BME280;38839;45.186;5.720;2023-05-12T07:00:02;98756.63;;;13.47;75.41
52975;BME280;38839;45.186;5.720;2023-05-12T07:02:28;98754.50;;;13.63;75.06
52975;BME280;38839;45.186;5.720;2023-05-12T07:04:54;98758.88;;;13.64;74.76
52975;BME280;38839;45.186;5.720;2023-05-12T07:07:20;98752.44;;;13.78;74.92
52975;BME280;38839;45.186;5.720;2023-05-12T07:09:45;98755.59;;;13.92;74.61
52975;BME280;38839;45.186;5.720;2023-05-12T07:12:11;98755.00;;;14.18;73.93
52975;BME280;38839;45.186;5.720;2023-05-12T07:14:36;98760.44;;;14.46;72.79
52975;BME280;38839;45.186;5.720;2023-05-12T07:17:02;98753.78;;;14.69;71.88
52975;BME280;38839;45.186;5.720;2023-05-12T07:19:28;98750.63;;;14.89;71.01
52975;BME280;38839;45.186;5.720;2023-05-12T07:21:53;98754.47;;;15.07;69.81
52975;BME280;38839;45.186;5.720;2023-05-12T07:24:19;98747.06;;;15.21;69.45
52975;BME280;38839;45.186;5.720;2023-05-12T07:26:44;98752.03;;;15.32;68.58
52975;BME280;38839;45.186;5.720;2023-05-12T07:29:10;98747.06;;;15.53;66.95
52975;BME280;38839;45.186;5.720;2023-05-12T07:31:35;98747.44;;;15.68;66.39
52975;BME280;38839;45.186;5.720;2023-05-12T07:34:01;98751.19;;;15.61;65.48
52975;BME280;38839;45.186;5.720;2023-05-12T07:36:26;98747.25;;;15.76;65.03
52975;BME280;38839;45.186;5.720;2023-05-12T07:38:52;98745.16;;;15.87;64.01
52975;BME280;38839;45.186;5.720;2023-05-12T07:41:18;98741.56;;;15.90;64.00
52975;BME280;38839;45.186;5.720;2023-05-12T07:43:44;98744.09;;;15.93;63.61
52975;BME280;38839;45.186;5.720;2023-05-12T07:46:09;98744.28;;;15.87;63.70
52975;BME280;38839;45.186;5.720;2023-05-12T07:48:35;98745.78;;;15.96;63.31
52975;BME280;38839;45.186;5.720;2023-05-12T07:51:04;98742.41;;;16.19;62.67
52975;BME280;38839;45.186;5.720;2023-05-12T07:53:30;98731.88;;;16.45;61.45
52975;BME280;38839;45.186;5.720;2023-05-12T07:55:58;98738.75;;;16.49;60.89
52975;BME280;38839;45.186;5.720;2023-05-12T07:58:26;98736.78;;;16.56;61.02
52975;BME280;38839;45.186;5.720;2023-05-12T08:00:51;98731.91;;;16.44;60.99
52975;BME280;38839;45.186;5.720;2023-05-12T08:03:18;98731.88;;;16.19;61.22
52975;BME280;38839;45.186;5.720;2023-05-12T08:05:44;98730.75;;;15.99;62.01
52975;BME280;38839;45.186;5.720;2023-05-12T08:08:09;98733.59;;;15.63;62.97
52975;BME280;38839;45.186;5.720;2023-05-12T08:10:41;98732.31;;;15.47;63.51
52975;BME280;38839;45.186;5.720;2023-05-12T08:13:07;98733.81;;;15.56;63.67
52975;BME280;38839;45.186;5.720;2023-05-12T08:15:32;98728.28;;;15.35;63.55
52975;BME280;38839;45.186;5.720;2023-05-12T08:17:58;98732.88;;;15.28;64.12
52975;BME280;38839;45.186;5.720;2023-05-12T08:20:23;98731.03;;;15.32;64.05
52975;BME280;38839;45.186;5.720;2023-05-12T08:22:49;98730.25;;;15.28;63.73
52975;BME280;38839;45.186;5.720;2023-05-12T08:25:15;98729.00;;;15.11;64.02
52975;BME280;38839;45.186;5.720;2023-05-12T08:27:40;98731.28;;;15.23;63.95
52975;BME280;38839;45.186;5.720;2023-05-12T08:30:06;98722.44;;;15.25;63.97
52975;BME280;38839;45.186;5.720;2023-05-12T08:32:31;98725.88;;;15.27;64.04
52975;BME280;38839;45.186;5.720;2023-05-12T08:35:14;98722.44;;;15.25;64.10
52975;BME280;38839;45.186;5.720;2023-05-12T08:37:40;98714.59;;;15.54;64.03
52975;BME280;38839;45.186;5.720;2023-05-12T08:40:13;98725.66;;;15.65;63.66
52975;BME280;38839;45.186;5.720;2023-05-12T08:42:51;98704.41;;;15.73;63.51
52975;BME280;38839;45.186;5.720;2023-05-12T08:45:20;98717.53;;;16.01;62.51
52975;BME280;38839;45.186;5.720;2023-05-12T08:47:51;98716.34;;;16.11;62.96
52975;BME280;38839;45.186;5.720;2023-05-12T08:50:21;98711.81;;;16.41;62.16
52975;BME280;38839;45.186;5.720;2023-05-12T08:52:47;98717.09;;;16.66;61.51
52975;BME280;38839;45.186;5.720;2023-05-12T08:55:14;98710.13;;;16.65;61.03
52975;BME280;38839;45.186;5.720;2023-05-12T08:57:40;98703.34;;;16.83;60.68
52975;BME280;38839;45.186;5.720;2023-05-12T09:00:13;98709.28;;;16.90;61.05
52975;BME280;38839;45.186;5.720;2023-05-12T09:02:39;98709.75;;;16.76;60.90
52975;BME280;38839;45.186;5.720;2023-05-12T09:05:11;98701.00;;;16.76;60.81
52975;BME280;38839;45.186;5.720;2023-05-12T09:07:41;98707.91;;;16.78;60.34
52975;BME280;38839;45.186;5.720;2023-05-12T09:10:14;98695.41;;;16.60;60.40
52975;BME280;38839;45.186;5.720;2023-05-12T09:12:45;98696.25;;;16.85;59.59
52975;BME280;38839;45.186;5.720;2023-05-12T09:15:18;98707.34;;;16.95;59.69
52975;BME280;38839;45.186;5.720;2023-05-12T09:17:44;98692.16;;;16.77;59.86
52975;BME280;38839;45.186;5.720;2023-05-12T09:20:11;98693.00;;;16.77;60.20
52975;BME280;38839;45.186;5.720;2023-05-12T09:22:37;98682.88;;;16.66;59.96
52975;BME280;38839;45.186;5.720;2023-05-12T09:25:16;98690.34;;;16.54;59.95
52975;BME280;38839;45.186;5.720;2023-05-12T09:27:43;98706.81;;;16.85;59.88
52975;BME280;38839;45.186;5.720;2023-05-12T09:30:10;98704.66;;;16.72;59.90
52975;BME280;38839;45.186;5.720;2023-05-12T09:32:38;98700.88;;;16.79;60.15
52975;BME280;38839;45.186;5.720;2023-05-12T09:35:04;98700.75;;;16.57;60.13
52975;BME280;38839;45.186;5.720;2023-05-12T09:37:50;98702.72;;;16.25;60.90
52975;BME280;38839;45.186;5.720;2023-05-12T09:40:18;98686.34;;;16.17;60.96
52975;BME280;38839;45.186;5.720;2023-05-12T09:42:45;98704.19;;;16.07;61.33
52975;BME280;38839;45.186;5.720;2023-05-12T09:45:13;98700.03;;;15.72;61.17
52975;BME280;38839;45.186;5.720;2023-05-12T09:47:40;98701.50;;;15.82;61.54
52975;BME280;38839;45.186;5.720;2023-05-12T09:50:09;98699.44;;;15.62;61.76
52975;BME280;38839;45.186;5.720;2023-05-12T09:52:38;98701.31;;;15.58;62.07
52975;BME280;38839;45.186;5.720;2023-05-12T09:55:06;98704.66;;;15.63;61.46
52975;BME280;38839;45.186;5.720;2023-05-12T09:57:43;98710.63;;;15.68;61.36
52975;BME280;38839;45.186;5.720;2023-05-12T10:00:13;98696.97;;;15.57;61.51
52975;BME280;38839;45.186;5.720;2023-05-12T10:02:40;98704.16;;;15.80;61.92
52975;BME280;38839;45.186;5.720;2023-05-12T10:05:19;98706.75;;;15.82;61.36
52975;BME280;38839;45.186;5.720;2023-05-12T10:07:49;98702.69;;;16.00;61.07
52975;BME280;38839;45.186;5.720;2023-05-12T10:10:22;98699.16;;;15.99;61.23
52975;BME280;38839;45.186;5.720;2023-05-12T10:12:50;98708.59;;;15.78;61.34
52975;BME280;38839;45.186;5.720;2023-05-12T10:15:17;98705.97;;;15.78;61.65
52975;BME280;38839;45.186;5.720;2023-05-12T10:17:44;98703.19;;;15.83;61.84
52975;BME280;38839;45.186;5.720;2023-05-12T10:20:10;98705.38;;;15.68;62.28
52975;BME280;38839;45.186;5.720;2023-05-12T10:22:41;98703.66;;;15.67;62.48
52975;BME280;38839;45.186;5.720;2023-05-12T10:25:08;98699.25;;;15.68;63.25
52975;BME280;38839;45.186;5.720;2023-05-12T10:27:34;98703.38;;;15.77;63.25
52975;BME280;38839;45.186;5.720;2023-05-12T10:30:00;98705.00;;;15.81;63.38
52975;BME280;38839;45.186;5.720;2023-05-12T10:32:27;98694.59;;;15.78;62.91
52975;BME280;38839;45.186;5.720;2023-05-12T10:34:52;98689.03;;;15.87;62.31
52975;BME280;38839;45.186;5.720;2023-05-12T10:37:18;98687.13;;;15.92;61.74
52975;BME280;38839;45.186;5.720;2023-05-12T10:39:49;98692.28;;;15.95;61.57
52975;BME280;38839;45.186;5.720;2023-05-12T10:42:16;98679.28;;;16.17;60.83
52975;BME280;38839;45.186;5.720;2023-05-12T10:44:53;98665.88;;;16.50;59.87
52975;BME280;38839;45.186;5.720;2023-05-12T10:47:30;98677.97;;;16.56;59.15
52975;BME280;38839;45.186;5.720;2023-05-12T10:50:00;98671.09;;;16.52;59.16
52975;BME280;38839;45.186;5.720;2023-05-12T10:52:25;98673.66;;;16.78;58.98
52975;BME280;38839;45.186;5.720;2023-05-12T10:54:59;98675.91;;;16.91;58.86
52975;BME280;38839;45.186;5.720;2023-05-12T10:57:24;98673.66;;;16.78;59.19
52975;BME280;38839;45.186;5.720;2023-05-12T10:59:52;98672.38;;;16.65;59.31
52975;BME280;38839;45.186;5.720;2023-05-12T11:02:27;98681.84;;;16.45;59.17
52975;BME280;38839;45.186;5.720;2023-05-12T11:05:09;98678.25;;;16.48;59.62
52975;BME280;38839;45.186;5.720;2023-05-12T11:07:34;98671.09;;;16.26;60.18
52975;BME280;38839;45.186;5.720;2023-05-12T11:10:02;98668.50;;;16.25;60.63
52975;BME280;38839;45.186;5.720;2023-05-12T11:12:29;98672.97;;;16.23;60.37
52975;BME280;38839;45.186;5.720;2023-05-12T11:15:00;98676.06;;;16.34;60.15
52975;BME280;38839;45.186;5.720;2023-05-12T11:17:27;98673.16;;;16.43;59.83
52975;BME280;38839;45.186;5.720;2023-05-12T11:19:53;98671.25;;;16.72;59.52
52975;BME280;38839;45.186;5.720;2023-05-12T11:22:20;98669.06;;;16.85;58.70
52975;BME280;38839;45.186;5.720;2023-05-12T11:24:47;98667.41;;;17.06;58.11
52975;BME280;38839;45.186;5.720;2023-05-12T11:27:14;98667.47;;;17.28;58.14
52975;BME280;38839;45.186;5.720;2023-05-12T11:29:40;98658.53;;;17.32;58.02
52975;BME280;38839;45.186;5.720;2023-05-12T11:32:08;98660.50;;;17.27;57.66
52975;BME280;38839;45.186;5.720;2023-05-12T11:34:34;98659.28;;;17.36;57.78
52975;BME280;38839;45.186;5.720;2023-05-12T11:37:03;98659.88;;;17.42;57.21
52975;BME280;38839;45.186;5.720;2023-05-12T11:39:29;98663.25;;;17.46;57.03
52975;BME280;38839;45.186;5.720;2023-05-12T11:42:04;98654.38;;;17.48;57.04
52975;BME280;38839;45.186;5.720;2023-05-12T11:44:30;98653.53;;;17.48;56.19
52975;BME280;38839;45.186;5.720;2023-05-12T11:46:59;98658.66;;;17.51;56.29
52975;BME280;38839;45.186;5.720;2023-05-12T11:49:26;98652.28;;;17.57;56.01
52975;BME280;38839;45.186;5.720;2023-05-12T11:51:54;98658.78;;;17.48;56.04
52975;BME280;38839;45.186;5.720;2023-05-12T11:54:20;98647.06;;;17.55;56.05
52975;BME280;38839;45.186;5.720;2023-05-12T11:56:51;98651.72;;;17.48;55.86
52975;BME280;38839;45.186;5.720;2023-05-12T11:59:30;98645.44;;;17.75;55.60
52975;BME280;38839;45.186;5.720;2023-05-12T12:01:56;98643.34;;;18.05;54.99
52975;BME280;38839;45.186;5.720;2023-05-12T12:04:42;98638.41;;;18.18;54.37
52975;BME280;38839;45.186;5.720;2023-05-12T12:07:10;98640.72;;;18.25;54.25
52975;BME280;38839;45.186;5.720;2023-05-12T12:09:39;98625.16;;;18.19;54.47
52975;BME280;38839;45.186;5.720;2023-05-12T12:12:07;98621.72;;;18.17;54.18
52975;BME280;38839;45.186;5.720;2023-05-12T12:14:33;98629.69;;;18.36;54.35
52975;BME280;38839;45.186;5.720;2023-05-12T12:17:00;98627.69;;;18.21;54.21
52975;BME280;38839;45.186;5.720;2023-05-12T12:19:26;98628.47;;;18.02;54.40
52975;BME280;38839;45.186;5.720;2023-05-12T12:21:56;98631.66;;;18.10;54.48
52975;BME280;38839;45.186;5.720;2023-05-12T12:24:22;98632.00;;;18.23;54.27
52975;BME280;38839;45.186;5.720;2023-05-12T12:26:48;98624.16;;;18.22;54.08
52975;BME280;38839;45.186;5.720;2023-05-12T12:29:14;98619.06;;;18.38;53.80
52975;BME280;38839;45.186;5.720;2023-05-12T12:31:40;98626.09;;;18.58;53.52
52975;BME280;38839;45.186;5.720;2023-05-12T12:34:05;98613.63;;;18.41;53.20
52975;BME280;38839;45.186;5.720;2023-05-12T12:36:31;98622.28;;;18.65;52.93
52975;BME280;38839;45.186;5.720;2023-05-12T12:38:57;98618.84;;;18.63;52.92
52975;BME280;38839;45.186;5.720;2023-05-12T12:41:23;98619.56;;;18.66;52.75
52975;BME280;38839;45.186;5.720;2023-05-12T12:43:49;98621.13;;;18.91;52.40
52975;BME280;38839;45.186;5.720;2023-05-12T12:46:14;98627.06;;;18.96;52.31
52975;BME280;38839;45.186;5.720;2023-05-12T12:48:40;98624.75;;;18.88;52.14
52975;BME280;38839;45.186;5.720;2023-05-12T12:51:05;98630.56;;;18.76;51.94
52975;BME280;38839;45.186;5.720;2023-05-12T12:53:31;98619.66;;;18.44;52.39
52975;BME280;38839;45.186;5.720;2023-05-12T12:55:56;98615.38;;;18.42;52.67
52975;BME280;38839;45.186;5.720;2023-05-12T12:58:22;98626.13;;;18.37;53.21